sensor_id;sensor_type;location;lat;lon;timestamp;pressure;altitude;pressure_sealevel;temperature;humidity
61472;BME280;47337;54.068;12.114;2023-01-30T00:00:52;100282.06;;;4.30;100.00
61472;BME280;47337;54.068;12.114;2023-01-30T00:03:18;100281.34;;;4.36;100.00
61472;BME280;47337;54.068;12.114;2023-01-30T00:05:43;100284.91;;;4.39;100.00
61472;BME280;47337;54.068;12.114;2023-01-30T00:08:08;100282.22;;;4.36;100.00
61472;BME280;47337;54.068;12.114;2023-01-30T00:10:34;100287.38;;;4.33;100.00
61472;BME280;47337;54.068;12.114;2023-01-30T00:12:59;100282.06;;;4.30;100.00
61472;BME280;47337;54.068;12.114;2023-01-30T00:15:27;100271.78;;;4.35;100.00
61472;BME280;47337;54.068;12.114;2023-01-30T00:17:52;100270.00;;;4.32;100.00
61472;BME280;47337;54.068;12.114;2023-01-30T00:20:20;100263.09;;;4.33;100.00
61472;BME280;47337;54.068;12.114;2023-01-30T00:22:45;100268.41;;;4.37;100.00
61472;BME280;47337;54.068;12.114;2023-01-30T00:25:11;100257.06;;;4.34;100.00
61472;BME280;47337;54.068;12.114;2023-01-30T00:27:36;100246.81;;;4.40;100.00
61472;BME280;47337;54.068;12.114;2023-01-30T00:30:02;100234.66;;;4.39;100.00
61472;BME280;47337;54.068;12.114;2023-01-30T00:32:30;100246.03;;;4.43;100.00
61472;BME280;47337;54.068;12.114;2023-01-30T00:34:58;100216.63;;;4.44;100.00
61472;BME280;47337;54.068;12.114;2023-01-30T00:37:23;100220.09;;;4.46;100.00
61472;BME280;47337;54.068;12.114;2023-01-30T00:39:51;100208.97;;;4.50;100.00
61472;BME280;47337;54.068;12.114;2023-01-30T00:42:17;100203.72;;;4.48;100.00
61472;BME280;47337;54.068;12.114;2023-01-30T00:45:00;100187.28;;;4.49;100.00
61472;BME280;47337;54.068;12.114;2023-01-30T00:47:45;100182.22;;;4.54;100.00
61472;BME280;47337;54.068;12.114;2023-01-30T00:50:12;100164.06;;;4.55;100.00
61472;BME280;47337;54.068;12.114;2023-01-30T00:52:37;100166.63;;;4.54;100.00
61472;BME280;47337;54.068;12.114;2023-01-30T00:55:03;100142.38;;;4.53;100.00
61472;BME280;47337;54.068;12.114;2023-01-30T00:57:28;100121.63;;;4.56;100.00
61472;BME280;47337;54.068;12.114;2023-01-30T00:59:56;100124.38;;;4.62;100.00
61472;BME280;47337;54.068;12.114;2023-01-30T01:02:22;100093.81;;;4.52;100.00
61472;BME280;47337;54.068;12.114;2023-01-30T01:04:47;100106.03;;;4.55;100.00
61472;BME280;47337;54.068;12.114;2023-01-30T01:07:13;100110.44;;;4.59;100.00
61472;BME280;47337;54.068;12.114;2023-01-30T01:09:43;100107.75;;;4.56;100.00
61472;BME280;47337;54.068;12.114;2023-01-30T01:12:08;100120.06;;;4.63;100.00
61472;BME280;47337;54.068;12.114;2023-01-30T01:14:34;100115.66;;;4.60;100.00
61472;BME280;47337;54.068;12.114;2023-01-30T01:16:59;100110.69;;;4.69;100.00
61472;BME280;47337;54.068;12.114;2023-01-30T01:19:27;100103.72;;;4.68;100.00
61472;BME280;47337;54.068;12.114;2023-01-30T01:21:52;100099.28;;;4.63;100.00
61472;BME280;47337;54.068;12.114;2023-01-30T01:24:20;100107.28;;;4.72;100.00
61472;BME280;47337;54.068;12.114;2023-01-30T01:26:46;100105.63;;;4.75;100.00
61472;BME280;47337;54.068;12.114;2023-01-30T01:29:13;100100.25;;;4.68;100.00
61472;BME280;47337;54.068;12.114;2023-01-30T01:31:38;100091.84;;;4.79;100.00
61472;BME280;47337;54.068;12.114;2023-01-30T01:34:04;100095.25;;;4.75;100.00
61472;BME280;47337;54.068;12.114;2023-01-30T01:36:29;100087.69;;;4.86;100.00
61472;BME280;47337;54.068;12.114;2023-01-30T01:38:57;100072.06;;;4.86;100.00
61472;BME280;47337;54.068;12.114;2023-01-30T01:41:23;100082.63;;;4.94;100.00
61472;BME280;47337;54.068;12.114;2023-01-30T01:46:49;100059.03;;;4.85;100.00
61472;BME280;47337;54.068;12.114;2023-01-30T01:49:29;100073.06;;;4.93;100.00
61472;BME280;47337;54.068;12.114;2023-01-30T01:52:08;100059.31;;;4.97;100.00
61472;BME280;47337;54.068;12.114;2023-01-30T01:54:39;100039.38;;;4.97;100.00
61472;BME280;47337;54.068;12.114;2023-01-30T01:57:11;100034.28;;;5.03;100.00
61472;BME280;47337;54.068;12.114;2023-01-30T01:59:45;100024.81;;;5.05;100.00
61472;BME280;47337;54.068;12.114;2023-01-30T02:02:13;100007.16;;;4.91;100.00
61472;BME280;47337;54.068;12.114;2023-01-30T02:04:41;100025.28;;;4.86;100.00
61472;BME280;47337;54.068;12.114;2023-01-30T02:07:28;100016.63;;;4.87;100.00
61472;BME280;47337;54.068;12.114;2023-01-30T02:09:57;100011.47;;;4.90;100.00
61472;BME280;47337;54.068;12.114;2023-01-30T02:12:23;100023.72;;;4.94;100.00
61472;BME280;47337;54.068;12.114;2023-01-30T02:14:50;100014.22;;;4.96;100.00
61472;BME280;47337;54.068;12.114;2023-01-30T02:17:18;100009.03;;;4.96;100.00
61472;BME280;47337;54.068;12.114;2023-01-30T02:19:56;100006.66;;;5.10;100.00
61472;BME280;47337;54.068;12.114;2023-01-30T02:30:42;99998.88;;;5.08;100.00
61472;BME280;47337;54.068;12.114;2023-01-30T02:39:08;99967.63;;;5.07;100.00
61472;BME280;47337;54.068;12.114;2023-01-30T02:41:45;99971.94;;;5.06;100.00
61472;BME280;47337;54.068;12.114;2023-01-30T02:44:24;99968.53;;;5.10;100.00
61472;BME280;47337;54.068;12.114;2023-01-30T02:46:59;99965.06;;;5.08;100.00
61472;BME280;47337;54.068;12.114;2023-01-30T02:49:37;99967.63;;;5.07;100.00
61472;BME280;47337;54.068;12.114;2023-01-30T02:52:08;99963.34;;;5.10;100.00
61472;BME280;47337;54.068;12.114;2023-01-30T02:54:38;99958.13;;;5.10;100.00
61472;BME280;47337;54.068;12.114;2023-01-30T02:57:16;99952.91;;;5.07;100.00
61472;BME280;47337;54.068;12.114;2023-01-30T02:59:48;99952.19;;;5.16;100.00
61472;BME280;47337;54.068;12.114;2023-01-30T03:07:48;99948.94;;;5.28;100.00
61472;BME280;47337;54.068;12.114;2023-01-30T03:10:27;99940.97;;;5.19;100.00
61472;BME280;47337;54.068;12.114;2023-01-30T03:16:00;99919.53;;;5.33;100.00
61472;BME280;47337;54.068;12.114;2023-01-30T03:18:27;99913.34;;;5.27;100.00
61472;BME280;47337;54.068;12.114;2023-01-30T03:20:52;99917.75;;;5.29;100.00
61472;BME280;47337;54.068;12.114;2023-01-30T03:23:18;99916.09;;;5.34;100.00
61472;BME280;47337;54.068;12.114;2023-01-30T03:25:45;99909.13;;;5.33;100.00
61472;BME280;47337;54.068;12.114;2023-01-30T03:28:13;99909.19;;;5.36;100.00
61472;BME280;47337;54.068;12.114;2023-01-30T03:30:40;99903.94;;;5.35;100.00
61472;BME280;47337;54.068;12.114;2023-01-30T03:33:06;99899.72;;;5.40;100.00
61472;BME280;47337;54.068;12.114;2023-01-30T03:35:31;99895.38;;;5.42;100.00
61472;BME280;47337;54.068;12.114;2023-01-30T03:37:59;99896.34;;;5.47;100.00
61472;BME280;47337;54.068;12.114;2023-01-30T03:40:25;99884.25;;;5.49;100.00
61472;BME280;47337;54.068;12.114;2023-01-30T03:42:50;99883.41;;;5.51;100.00
61472;BME280;47337;54.068;12.114;2023-01-30T03:45:16;99880.84;;;5.55;100.00
61472;BME280;47337;54.068;12.114;2023-01-30T03:47:41;99877.47;;;5.60;100.00
61472;BME280;47337;54.068;12.114;2023-01-30T03:50:07;99861.88;;;5.60;100.00
61472;BME280;47337;54.068;12.114;2023-01-30T03:52:36;99861.03;;;5.61;100.00
61472;BME280;47337;54.068;12.114;2023-01-30T03:55:03;99865.34;;;5.62;100.00
61472;BME280;47337;54.068;12.114;2023-01-30T03:57:29;99862.81;;;5.67;100.00
61472;BME280;47337;54.068;12.114;2023-01-30T03:59:55;99853.28;;;5.67;100.00
61472;BME280;47337;54.068;12.114;2023-01-30T04:02:23;99861.16;;;5.70;100.00
61472;BME280;47337;54.068;12.114;2023-01-30T04:04:50;99862.03;;;5.72;100.00
61472;BME280;47337;54.068;12.114;2023-01-30T04:07:15;99866.50;;;5.79;100.00
61472;BME280;47337;54.068;12.114;2023-01-30T04:09:42;99848.25;;;5.79;100.00
61472;BME280;47337;54.068;12.114;2023-01-30T04:12:07;99863.88;;;5.78;100.00
61472;BME280;47337;54.068;12.114;2023-01-30T04:14:32;99859.53;;;5.78;100.00
61472;BME280;47337;54.068;12.114;2023-01-30T04:17:00;99885.59;;;5.80;100.00
61472;BME280;47337;54.068;12.114;2023-01-30T04:19:28;99889.09;;;5.82;100.00
61472;BME280;47337;54.068;12.114;2023-01-30T04:21:53;99897.78;;;5.84;100.00
61472;BME280;47337;54.068;12.114;2023-01-30T04:24:21;99884.91;;;5.90;100.00
61472;BME280;47337;54.068;12.114;2023-01-30T04:26:51;99883.19;;;5.91;100.00
61472;BME280;47337;54.068;12.114;2023-01-30T04:29:17;99863.13;;;5.86;100.00
61472;BME280;47337;54.068;12.114;2023-01-30T04:31:47;99865.66;;;5.80;100.00
61472;BME280;47337;54.068;12.114;2023-01-30T04:34:12;99858.72;;;5.82;100.00
61472;BME280;47337;54.068;12.114;2023-01-30T04:36:38;99861.31;;;5.81;100.00
61472;BME280;47337;54.068;12.114;2023-01-30T04:39:03;99855.97;;;5.73;100.00
61472;BME280;47337;54.068;12.114;2023-01-30T04:41:29;99822.13;;;5.73;100.00
61472;BME280;47337;54.068;12.114;2023-01-30T04:43:54;99827.25;;;5.67;100.00
61472;BME280;47337;54.068;12.114;2023-01-30T04:46:22;99836.81;;;5.68;100.00
61472;BME280;47337;54.068;12.114;2023-01-30T04:48:47;99848.03;;;5.64;100.00
61472;BME280;47337;54.068;12.114;2023-01-30T04:51:15;99854.94;;;5.62;100.00
61472;BME280;47337;54.068;12.114;2023-01-30T04:53:45;99853.22;;;5.61;100.00
61472;BME280;47337;54.068;12.114;2023-01-30T04:56:11;99848.00;;;5.61;100.00
61472;BME280;47337;54.068;12.114;2023-01-30T04:58:38;99865.25;;;5.56;100.00
61472;BME280;47337;54.068;12.114;2023-01-30T05:01:25;99871.44;;;5.61;100.00
61472;BME280;47337;54.068;12.114;2023-01-30T05:03:54;99858.44;;;5.64;100.00
61472;BME280;47337;54.068;12.114;2023-01-30T05:06:22;99854.19;;;5.69;100.00
61472;BME280;47337;54.068;12.114;2023-01-30T05:08:49;99855.19;;;5.77;100.00
61472;BME280;47337;54.068;12.114;2023-01-30T05:11:14;99856.81;;;5.72;100.00
61472;BME280;47337;54.068;12.114;2023-01-30T05:13:40;99841.97;;;5.65;100.00
61472;BME280;47337;54.068;12.114;2023-01-30T05:16:07;99841.13;;;5.66;100.00
61472;BME280;47337;54.068;12.114;2023-01-30T05:18:32;99848.09;;;5.67;100.00
61472;BME280;47337;54.068;12.114;2023-01-30T05:21:17;99851.47;;;5.63;100.00
61472;BME280;47337;54.068;12.114;2023-01-30T05:23:43;99849.78;;;5.65;100.00
61472;BME280;47337;54.068;12.114;2023-01-30T05:26:11;99849.00;;;5.69;100.00
61472;BME280;47337;54.068;12.114;2023-01-30T05:28:36;99852.44;;;5.68;100.00
61472;BME280;47337;54.068;12.114;2023-01-30T05:31:03;99853.22;;;5.64;100.00
61472;BME280;47337;54.068;12.114;2023-01-30T05:33:29;99851.34;;;5.54;100.00
61472;BME280;47337;54.068;12.114;2023-01-30T05:35:55;99859.09;;;5.49;100.00
61472;BME280;47337;54.068;12.114;2023-01-30T05:38:24;99850.59;;;5.63;100.00
61472;BME280;47337;54.068;12.114;2023-01-30T05:41:04;99841.16;;;5.68;100.00
61472;BME280;47337;54.068;12.114;2023-01-30T05:43:30;99842.91;;;5.69;100.00
61472;BME280;47337;54.068;12.114;2023-01-30T05:45:57;99842.91;;;5.69;100.00
61472;BME280;47337;54.068;12.114;2023-01-30T05:48:24;99842.91;;;-143.61;100.00
61472;BME280;47337;54.068;12.114;2023-01-30T05:50:53;99842.91;;;5.69;100.00
61472;BME280;47337;54.068;12.114;2023-01-30T05:53:19;99842.91;;;5.69;100.00
61472;BME280;47337;54.068;12.114;2023-01-30T05:55:44;99842.91;;;5.69;100.00
61472;BME280;47337;54.068;12.114;2023-01-30T05:58:12;50141.94;;;-143.62;100.00
61472;BME280;47337;54.068;12.114;2023-01-30T06:00:37;55380.69;;;-143.62;100.00
61472;BME280;47337;54.068;12.114;2023-01-30T06:03:03;55380.69;;;-143.62;100.00
61472;BME280;47337;54.068;12.114;2023-01-30T06:05:30;55380.69;;;-143.62;100.00
61472;BME280;47337;54.068;12.114;2023-01-30T06:07:56;55380.69;;;-143.62;100.00
61472;BME280;47337;54.068;12.114;2023-01-30T06:10:21;55380.69;;;-143.62;100.00
61472;BME280;47337;54.068;12.114;2023-01-30T06:12:47;99842.91;;;5.69;100.00
61472;BME280;47337;54.068;12.114;2023-01-30T06:15:12;99842.91;;;5.69;100.00
61472;BME280;47337;54.068;12.114;2023-01-30T06:17:43;55380.69;;;-143.62;100.00
61472;BME280;47337;54.068;12.114;2023-01-30T06:20:09;55380.69;;;-143.62;100.00
61472;BME280;47337;54.068;12.114;2023-01-30T06:22:37;55380.69;;;-143.62;100.00
61472;BME280;47337;54.068;12.114;2023-01-30T06:25:03;55380.69;;;-143.62;100.00
61472;BME280;47337;54.068;12.114;2023-01-30T06:27:29;55380.69;;;-143.62;100.00
61472;BME280;47337;54.068;12.114;2023-01-30T06:29:54;55380.69;;;-143.62;100.00
61472;BME280;47337;54.068;12.114;2023-01-30T06:32:20;55380.69;;;-143.62;100.00
61472;BME280;47337;54.068;12.114;2023-01-30T06:34:45;55380.69;;;-143.62;100.00
61472;BME280;47337;54.068;12.114;2023-01-30T06:37:10;55380.69;;;-143.62;100.00
61472;BME280;47337;54.068;12.114;2023-01-30T06:39:36;55380.69;;;-143.62;100.00
61472;BME280;47337;54.068;12.114;2023-01-30T06:42:01;55380.69;;;-143.62;100.00
61472;BME280;47337;54.068;12.114;2023-01-30T06:44:29;55380.69;;;-143.62;100.00
61472;BME280;47337;54.068;12.114;2023-01-30T06:46:57;55380.69;;;-143.62;100.00
61472;BME280;47337;54.068;12.114;2023-01-30T06:49:25;55380.69;;;-143.62;100.00
61472;BME280;47337;54.068;12.114;2023-01-30T06:51:53;55380.69;;;-143.62;100.00
61472;BME280;47337;54.068;12.114;2023-01-30T06:54:20;55380.69;;;-143.62;100.00
61472;BME280;47337;54.068;12.114;2023-01-30T06:56:46;55380.69;;;-143.62;100.00
61472;BME280;47337;54.068;12.114;2023-01-30T06:59:13;55380.69;;;-143.62;100.00
61472;BME280;47337;54.068;12.114;2023-01-30T07:01:39;55380.69;;;-143.62;100.00
61472;BME280;47337;54.068;12.114;2023-01-30T07:04:04;55380.69;;;-143.62;100.00
61472;BME280;47337;54.068;12.114;2023-01-30T07:06:32;55380.69;;;-143.62;100.00
61472;BME280;47337;54.068;12.114;2023-01-30T07:08:58;55380.69;;;-143.62;100.00
61472;BME280;47337;54.068;12.114;2023-01-30T07:11:24;55380.69;;;-143.62;100.00
61472;BME280;47337;54.068;12.114;2023-01-30T07:13:51;55380.69;;;-143.62;100.00
61472;BME280;47337;54.068;12.114;2023-01-30T07:16:17;55380.69;;;-143.62;100.00
61472;BME280;47337;54.068;12.114;2023-01-30T07:18:42;55380.69;;;-143.62;100.00
61472;BME280;47337;54.068;12.114;2023-01-30T07:21:08;55380.69;;;-143.62;100.00
61472;BME280;47337;54.068;12.114;2023-01-30T07:23:38;55380.69;;;-143.62;100.00
61472;BME280;47337;54.068;12.114;2023-01-30T07:26:04;55380.69;;;-143.62;100.00
61472;BME280;47337;54.068;12.114;2023-01-30T07:28:32;55380.69;;;-143.62;100.00
61472;BME280;47337;54.068;12.114;2023-01-30T07:30:58;55380.69;;;-143.62;100.00
61472;BME280;47337;54.068;12.114;2023-01-30T07:33:24;55380.69;;;-143.62;100.00
61472;BME280;47337;54.068;12.114;2023-01-30T07:35:49;55380.69;;;-143.62;100.00
61472;BME280;47337;54.068;12.114;2023-01-30T07:38:17;55380.69;;;-143.62;100.00
61472;BME280;47337;54.068;12.114;2023-01-30T07:40:43;55380.69;;;-143.62;100.00
61472;BME280;47337;54.068;12.114;2023-01-30T07:43:12;55380.69;;;-143.62;100.00
61472;BME280;47337;54.068;12.114;2023-01-30T07:45:46;55380.69;;;-143.62;100.00
61472;BME280;47337;54.068;12.114;2023-01-30T07:48:14;55380.69;;;-143.62;100.00
61472;BME280;47337;54.068;12.114;2023-01-30T07:50:42;55380.69;;;-143.62;100.00
61472;BME280;47337;54.068;12.114;2023-01-30T07:53:13;55380.69;;;-143.62;100.00
61472;BME280;47337;54.068;12.114;2023-01-30T07:55:39;55380.69;;;-143.62;100.00
61472;BME280;47337;54.068;12.114;2023-01-30T07:58:05;55380.69;;;-143.62;100.00
61472;BME280;47337;54.068;12.114;2023-01-30T08:00:33;55380.69;;;-143.62;100.00
61472;BME280;47337;54.068;12.114;2023-01-30T08:03:01;55380.69;;;-143.62;100.00
61472;BME280;47337;54.068;12.114;2023-01-30T08:05:27;55380.69;;;-143.62;100.00
61472;BME280;47337;54.068;12.114;2023-01-30T08:07:54;55380.69;;;-143.62;100.00
61472;BME280;47337;54.068;12.114;2023-01-30T08:10:27;55380.69;;;-143.62;100.00
61472;BME280;47337;54.068;12.114;2023-01-30T08:12:52;55380.69;;;-143.62;100.00
61472;BME280;47337;54.068;12.114;2023-01-30T08:15:20;55380.69;;;-143.62;100.00
61472;BME280;47337;54.068;12.114;2023-01-30T08:17:52;55380.69;;;-143.62;100.00
61472;BME280;47337;54.068;12.114;2023-01-30T08:20:20;55380.69;;;-143.62;100.00
61472;BME280;47337;54.068;12.114;2023-01-30T08:22:46;55380.69;;;-143.62;100.00
61472;BME280;47337;54.068;12.114;2023-01-30T08:25:11;55380.69;;;-143.62;100.00
61472;BME280;47337;54.068;12.114;2023-01-30T08:27:39;55380.69;;;-143.62;100.00
61472;BME280;47337;54.068;12.114;2023-01-30T08:30:04;55380.69;;;-143.62;100.00
61472;BME280;47337;54.068;12.114;2023-01-30T08:32:30;55380.69;;;-143.62;100.00
61472;BME280;47337;54.068;12.114;2023-01-30T08:34:55;55380.69;;;-143.62;100.00
61472;BME280;47337;54.068;12.114;2023-01-30T08:37:21;55380.69;;;-143.62;100.00
61472;BME280;47337;54.068;12.114;2023-01-30T08:39:46;55380.69;;;-143.62;100.00
61472;BME280;47337;54.068;12.114;2023-01-30T08:42:12;55380.69;;;-143.62;100.00
61472;BME280;47337;54.068;12.114;2023-01-30T08:44:37;55380.69;;;-143.62;100.00
61472;BME280;47337;54.068;12.114;2023-01-30T08:47:05;55380.69;;;-143.62;100.00
61472;BME280;47337;54.068;12.114;2023-01-30T08:49:30;55380.69;;;-143.62;100.00
61472;BME280;47337;54.068;12.114;2023-01-30T08:51:56;55380.69;;;-143.62;100.00
61472;BME280;47337;54.068;12.114;2023-01-30T08:54:21;55380.69;;;-143.62;100.00
61472;BME280;47337;54.068;12.114;2023-01-30T08:56:46;55380.69;;;-143.62;100.00
61472;BME280;47337;54.068;12.114;2023-01-30T08:59:12;55380.69;;;-143.62;100.00
61472;BME280;47337;54.068;12.114;2023-01-30T09:01:40;55380.69;;;-143.62;100.00
61472;BME280;47337;54.068;12.114;2023-01-30T09:04:05;55380.69;;;-143.62;100.00
61472;BME280;47337;54.068;12.114;2023-01-30T09:06:30;55380.69;;;-143.62;100.00
61472;BME280;47337;54.068;12.114;2023-01-30T09:09:00;55380.69;;;-143.62;100.00
61472;BME280;47337;54.068;12.114;2023-01-30T09:11:26;55380.69;;;-143.62;100.00
61472;BME280;47337;54.068;12.114;2023-01-30T09:13:51;55380.69;;;-143.62;100.00
61472;BME280;47337;54.068;12.114;2023-01-30T09:16:17;55380.69;;;-143.62;100.00
61472;BME280;47337;54.068;12.114;2023-01-30T09:18:43;55380.69;;;-143.62;100.00
61472;BME280;47337;54.068;12.114;2023-01-30T09:21:10;55380.69;;;-143.62;100.00
61472;BME280;47337;54.068;12.114;2023-01-30T09:23:36;55380.69;;;-143.62;100.00
61472;BME280;47337;54.068;12.114;2023-01-30T09:26:04;55380.69;;;-143.62;100.00
61472;BME280;47337;54.068;12.114;2023-01-30T09:28:32;55380.69;;;-143.62;100.00
61472;BME280;47337;54.068;12.114;2023-01-30T09:30:59;55380.69;;;-143.62;100.00
61472;BME280;47337;54.068;12.114;2023-01-30T09:33:30;55380.69;;;-143.62;100.00
61472;BME280;47337;54.068;12.114;2023-01-30T09:35:58;55380.69;;;-143.62;100.00
61472;BME280;47337;54.068;12.114;2023-01-30T09:38:23;55380.69;;;-143.62;100.00
61472;BME280;47337;54.068;12.114;2023-01-30T09:51:21;55380.69;;;-143.62;100.00
61472;BME280;47337;54.068;12.114;2023-01-30T09:56:28;55380.69;;;-143.62;100.00
61472;BME280;47337;54.068;12.114;2023-01-30T09:58:58;55380.69;;;-143.62;100.00
61472;BME280;47337;54.068;12.114;2023-01-30T10:06:47;55380.69;;;-143.62;100.00
61472;BME280;47337;54.068;12.114;2023-01-30T10:12:12;55380.69;;;-143.62;100.00
61472;BME280;47337;54.068;12.114;2023-01-30T10:22:53;55380.69;;;-143.62;100.00
61472;BME280;47337;54.068;12.114;2023-01-30T10:30:43;55380.69;;;-143.62;100.00
61472;BME280;47337;54.068;12.114;2023-01-30T10:33:33;55380.69;;;-143.62;100.00
61472;BME280;47337;54.068;12.114;2023-01-30T10:36:07;55380.69;;;-143.62;100.00
61472;BME280;47337;54.068;12.114;2023-01-30T10:41:31;55380.69;;;-143.62;100.00
61472;BME280;47337;54.068;12.114;2023-01-30T10:44:08;55380.69;;;-143.62;100.00
61472;BME280;47337;54.068;12.114;2023-01-30T10:50:00;55380.69;;;-143.62;100.00
61472;BME280;47337;54.068;12.114;2023-01-30T10:55:28;55380.69;;;-143.62;100.00
61472;BME280;47337;54.068;12.114;2023-01-30T10:58:16;55380.69;;;-143.62;100.00
61472;BME280;47337;54.068;12.114;2023-01-30T11:03:40;55380.69;;;-143.62;100.00
61472;BME280;47337;54.068;12.114;2023-01-30T11:06:18;55380.69;;;-143.62;100.00
61472;BME280;47337;54.068;12.114;2023-01-30T11:08:48;55380.69;;;-143.62;100.00
61472;BME280;47337;54.068;12.114;2023-01-30T11:14:10;55380.69;;;-143.62;100.00
61472;BME280;47337;54.068;12.114;2023-01-30T11:16:50;55380.69;;;-143.62;100.00
61472;BME280;47337;54.068;12.114;2023-01-30T11:19:20;55380.69;;;-143.62;100.00
61472;BME280;47337;54.068;12.114;2023-01-30T11:21:52;55380.69;;;-143.62;100.00
61472;BME280;47337;54.068;12.114;2023-01-30T11:24:20;55380.69;;;-143.62;100.00
61472;BME280;47337;54.068;12.114;2023-01-30T11:26:46;55380.69;;;-143.62;100.00
61472;BME280;47337;54.068;12.114;2023-01-30T11:29:19;55380.69;;;-143.62;100.00
61472;BME280;47337;54.068;12.114;2023-01-30T11:31:49;55380.69;;;-143.62;100.00
61472;BME280;47337;54.068;12.114;2023-01-30T11:34:17;55380.69;;;-143.62;100.00
61472;BME280;47337;54.068;12.114;2023-01-30T11:36:43;55380.69;;;-143.62;100.00
61472;BME280;47337;54.068;12.114;2023-01-30T11:41:40;55380.69;;;-143.62;100.00
61472;BME280;47337;54.068;12.114;2023-01-30T11:44:08;55380.69;;;-143.62;100.00
61472;BME280;47337;54.068;12.114;2023-01-30T11:46:41;55380.69;;;-143.62;100.00
61472;BME280;47337;54.068;12.114;2023-01-30T11:49:14;55380.69;;;-143.62;100.00
61472;BME280;47337;54.068;12.114;2023-01-30T11:51:45;55380.69;;;-143.62;100.00
61472;BME280;47337;54.068;12.114;2023-01-30T11:54:18;55380.69;;;-143.62;100.00
61472;BME280;47337;54.068;12.114;2023-01-30T11:56:48;55380.69;;;-143.62;100.00
61472;BME280;47337;54.068;12.114;2023-01-30T12:01:51;55380.69;;;-143.62;100.00
61472;BME280;47337;54.068;12.114;2023-01-30T12:04:27;55380.69;;;-143.62;100.00
61472;BME280;47337;54.068;12.114;2023-01-30T12:07:05;55380.69;;;-143.62;100.00
61472;BME280;47337;54.068;12.114;2023-01-30T12:09:36;55380.69;;;-143.62;100.00
61472;BME280;47337;54.068;12.114;2023-01-30T12:12:10;55380.69;;;-143.62;100.00
61472;BME280;47337;54.068;12.114;2023-01-30T12:14:49;55380.69;;;-143.62;100.00
61472;BME280;47337;54.068;12.114;2023-01-30T12:20:47;55380.69;;;-143.62;100.00
61472;BME280;47337;54.068;12.114;2023-01-30T12:23:56;55380.69;;;-143.62;100.00
61472;BME280;47337;54.068;12.114;2023-01-30T12:29:22;55380.69;;;-143.62;100.00
61472;BME280;47337;54.068;12.114;2023-01-30T12:32:10;55380.69;;;-143.62;100.00
61472;BME280;47337;54.068;12.114;2023-01-30T12:34:36;55380.69;;;-143.62;100.00
61472;BME280;47337;54.068;12.114;2023-01-30T12:45:21;55380.69;;;-143.62;100.00
61472;BME280;47337;54.068;12.114;2023-01-30T12:50:52;55380.69;;;-143.62;100.00
61472;BME280;47337;54.068;12.114;2023-01-30T12:59:14;55380.69;;;-143.62;100.00
61472;BME280;47337;54.068;12.114;2023-01-30T13:01:56;55380.69;;;-143.62;100.00
61472;BME280;47337;54.068;12.114;2023-01-30T13:07:26;55380.69;;;-143.62;100.00
61472;BME280;47337;54.068;12.114;2023-01-30T13:12:58;55380.69;;;-143.62;100.00
61472;BME280;47337;54.068;12.114;2023-01-30T13:18:43;55380.69;;;-143.62;100.00
61472;BME280;47337;54.068;12.114;2023-01-30T13:21:11;55380.69;;;-143.62;100.00
61472;BME280;47337;54.068;12.114;2023-01-30T13:26:14;55380.69;;;-143.62;100.00
61472;BME280;47337;54.068;12.114;2023-01-30T13:28:46;55380.69;;;-143.62;100.00
61472;BME280;47337;54.068;12.114;2023-01-30T13:31:19;55380.69;;;-143.62;100.00
61472;BME280;47337;54.068;12.114;2023-01-30T13:33:49;55380.69;;;-143.62;100.00
61472;BME280;47337;54.068;12.114;2023-01-30T13:36:22;55380.69;;;-143.62;100.00
61472;BME280;47337;54.068;12.114;2023-01-30T13:39:03;55380.69;;;-143.62;100.00
61472;BME280;47337;54.068;12.114;2023-01-30T13:41:37;55380.69;;;-143.62;100.00
61472;BME280;47337;54.068;12.114;2023-01-30T13:44:05;55380.69;;;-143.62;100.00
61472;BME280;47337;54.068;12.114;2023-01-30T13:46:39;55380.69;;;-143.62;100.00
61472;BME280;47337;54.068;12.114;2023-01-30T13:52:16;55380.69;;;-143.62;100.00
61472;BME280;47337;54.068;12.114;2023-01-30T13:54:52;55380.69;;;-143.62;100.00
61472;BME280;47337;54.068;12.114;2023-01-30T14:00:29;55380.69;;;-143.62;100.00
61472;BME280;47337;54.068;12.114;2023-01-30T14:11:45;55380.69;;;-143.62;100.00
61472;BME280;47337;54.068;12.114;2023-01-30T14:16:52;55380.69;;;-143.62;100.00
61472;BME280;47337;54.068;12.114;2023-01-30T14:19:38;55380.69;;;-143.62;100.00
61472;BME280;47337;54.068;12.114;2023-01-30T14:22:18;55380.69;;;-143.62;100.00
61472;BME280;47337;54.068;12.114;2023-01-30T14:24:44;55380.69;;;-143.62;100.00
61472;BME280;47337;54.068;12.114;2023-01-30T14:27:27;55380.69;;;-143.62;100.00
61472;BME280;47337;54.068;12.114;2023-01-30T14:29:56;55380.69;;;-143.62;100.00
61472;BME280;47337;54.068;12.114;2023-01-30T14:37:27;55380.69;;;-143.62;100.00
61472;BME280;47337;54.068;12.114;2023-01-30T14:39:56;55380.69;;;-143.62;100.00
61472;BME280;47337;54.068;12.114;2023-01-30T14:42:24;55380.69;;;-143.62;100.00
61472;BME280;47337;54.068;12.114;2023-01-30T14:47:21;55380.69;;;-143.62;100.00
61472;BME280;47337;54.068;12.114;2023-01-30T14:49:47;55380.69;;;-143.62;100.00
61472;BME280;47337;54.068;12.114;2023-01-30T14:52:36;55380.69;;;-143.62;100.00
61472;BME280;47337;54.068;12.114;2023-01-30T14:55:03;55380.69;;;-143.62;100.00
61472;BME280;47337;54.068;12.114;2023-01-30T14:57:29;55380.69;;;-143.62;100.00
61472;BME280;47337;54.068;12.114;2023-01-30T15:00:33;55380.69;;;-143.62;100.00